sensor_id;sensor_type;location;lat;lon;timestamp;P1;durP1;ratioP1;P2;durP2;ratioP2
69319;SDS011;56467;53.502;49.248;2022-10-20T00:01:08;4.93;;;2.90;;
69319;SDS011;56467;53.502;49.248;2022-10-20T00:03:35;4.35;;;3.03;;
69319;SDS011;56467;53.502;49.248;2022-10-20T00:08:39;3.97;;;2.72;;
69319;SDS011;56467;53.502;49.248;2022-10-20T00:11:06;3.88;;;2.80;;
69319;SDS011;56467;53.502;49.248;2022-10-20T00:13:33;3.63;;;2.70;;
69319;SDS011;56467;53.502;49.248;2022-10-20T00:15:59;4.03;;;2.63;;
69319;SDS011;56467;53.502;49.248;2022-10-20T00:18:25;4.40;;;2.70;;
69319;SDS011;56467;53.502;49.248;2022-10-20T00:20:52;3.75;;;2.58;;
69319;SDS011;56467;53.502;49.248;2022-10-20T00:23:18;3.67;;;2.65;;
69319;SDS011;56467;53.502;49.248;2022-10-20T00:25:44;4.05;;;2.95;;
69319;SDS011;56467;53.502;49.248;2022-10-20T00:28:10;3.58;;;2.42;;
69319;SDS011;56467;53.502;49.248;2022-10-20T00:30:36;3.75;;;2.70;;
69319;SDS011;56467;53.502;49.248;2022-10-20T00:33:21;4.07;;;2.63;;
69319;SDS011;56467;53.502;49.248;2022-10-20T00:35:47;3.40;;;2.53;;
69319;SDS011;56467;53.502;49.248;2022-10-20T00:38:13;3.60;;;2.63;;
69319;SDS011;56467;53.502;49.248;2022-10-20T00:40:38;4.30;;;2.60;;
69319;SDS011;56467;53.502;49.248;2022-10-20T00:43:08;3.75;;;2.45;;
69319;SDS011;56467;53.502;49.248;2022-10-20T00:45:35;3.40;;;2.47;;
69319;SDS011;56467;53.502;49.248;2022-10-20T00:48:03;3.85;;;2.60;;
69319;SDS011;56467;53.502;49.248;2022-10-20T00:50:37;3.50;;;2.20;;
69319;SDS011;56467;53.502;49.248;2022-10-20T00:53:06;3.10;;;2.30;;
69319;SDS011;56467;53.502;49.248;2022-10-20T00:55:33;2.88;;;2.10;;
69319;SDS011;56467;53.502;49.248;2022-10-20T00:58:01;2.67;;;2.13;;
69319;SDS011;56467;53.502;49.248;2022-10-20T01:00:28;3.63;;;2.20;;
69319;SDS011;56467;53.502;49.248;2022-10-20T01:02:55;3.50;;;2.40;;
69319;SDS011;56467;53.502;49.248;2022-10-20T01:05:24;2.88;;;2.20;;
69319;SDS011;56467;53.502;49.248;2022-10-20T01:07:50;4.63;;;2.38;;
69319;SDS011;56467;53.502;49.248;2022-10-20T01:10:16;3.42;;;2.10;;
69319;SDS011;56467;53.502;49.248;2022-10-20T01:21:13;3.55;;;2.13;;
69319;SDS011;56467;53.502;49.248;2022-10-20T01:26:36;3.13;;;2.20;;
69319;SDS011;56467;53.502;49.248;2022-10-20T01:29:28;2.55;;;2.00;;
69319;SDS011;56467;53.502;49.248;2022-10-20T01:34:30;2.50;;;1.90;;
69319;SDS011;56467;53.502;49.248;2022-10-20T01:37:18;2.67;;;1.95;;
69319;SDS011;56467;53.502;49.248;2022-10-20T01:39:53;2.60;;;1.90;;
69319;SDS011;56467;53.502;49.248;2022-10-20T01:42:25;2.72;;;2.10;;
69319;SDS011;56467;53.502;49.248;2022-10-20T01:44:54;3.15;;;1.95;;
69319;SDS011;56467;53.502;49.248;2022-10-20T01:47:26;3.28;;;2.20;;
69319;SDS011;56467;53.502;49.248;2022-10-20T01:49:53;2.80;;;1.90;;
69319;SDS011;56467;53.502;49.248;2022-10-20T01:52:21;2.50;;;2.10;;
69319;SDS011;56467;53.502;49.248;2022-10-20T01:54:47;4.32;;;2.20;;
69319;SDS011;56467;53.502;49.248;2022-10-20T01:59:46;2.10;;;1.67;;
69319;SDS011;56467;53.502;49.248;2022-10-20T02:11:04;3.05;;;2.10;;
69319;SDS011;56467;53.502;49.248;2022-10-20T02:13:34;2.50;;;1.75;;
69319;SDS011;56467;53.502;49.248;2022-10-20T02:16:03;2.83;;;1.95;;
69319;SDS011;56467;53.502;49.248;2022-10-20T02:18:41;2.85;;;1.80;;
69319;SDS011;56467;53.502;49.248;2022-10-20T02:21:08;2.75;;;1.88;;
69319;SDS011;56467;53.502;49.248;2022-10-20T02:23:36;2.17;;;1.75;;
69319;SDS011;56467;53.502;49.248;2022-10-20T02:26:08;2.35;;;1.90;;
69319;SDS011;56467;53.502;49.248;2022-10-20T02:28:38;3.03;;;2.03;;
69319;SDS011;56467;53.502;49.248;2022-10-20T02:31:08;2.20;;;1.70;;
69319;SDS011;56467;53.502;49.248;2022-10-20T02:33:34;2.47;;;1.90;;
69319;SDS011;56467;53.502;49.248;2022-10-20T02:36:02;2.08;;;1.60;;
69319;SDS011;56467;53.502;49.248;2022-10-20T02:38:30;2.00;;;1.60;;
69319;SDS011;56467;53.502;49.248;2022-10-20T02:40:55;2.45;;;1.83;;
69319;SDS011;56467;53.502;49.248;2022-10-20T02:43:21;2.15;;;1.70;;
69319;SDS011;56467;53.502;49.248;2022-10-20T02:45:47;2.58;;;1.70;;
69319;SDS011;56467;53.502;49.248;2022-10-20T02:48:13;1.92;;;1.52;;
69319;SDS011;56467;53.502;49.248;2022-10-20T02:50:39;1.98;;;1.60;;
69319;SDS011;56467;53.502;49.248;2022-10-20T02:53:04;2.45;;;1.55;;
69319;SDS011;56467;53.502;49.248;2022-10-20T02:55:30;2.28;;;1.75;;
69319;SDS011;56467;53.502;49.248;2022-10-20T02:57:56;2.03;;;1.67;;
69319;SDS011;56467;53.502;49.248;2022-10-20T03:00:22;1.83;;;1.60;;
69319;SDS011;56467;53.502;49.248;2022-10-20T03:02:48;1.92;;;1.60;;
69319;SDS011;56467;53.502;49.248;2022-10-20T03:05:15;1.98;;;1.65;;
69319;SDS011;56467;53.502;49.248;2022-10-20T03:07:42;1.50;;;1.30;;
69319;SDS011;56467;53.502;49.248;2022-10-20T03:10:08;2.50;;;1.60;;
69319;SDS011;56467;53.502;49.248;2022-10-20T03:12:34;1.98;;;1.50;;
69319;SDS011;56467;53.502;49.248;2022-10-20T03:14:59;2.13;;;1.50;;
69319;SDS011;56467;53.502;49.248;2022-10-20T03:17:25;2.75;;;1.70;;
69319;SDS011;56467;53.502;49.248;2022-10-20T03:19:51;3.15;;;1.60;;
69319;SDS011;56467;53.502;49.248;2022-10-20T03:22:17;1.60;;;1.45;;
69319;SDS011;56467;53.502;49.248;2022-10-20T03:24:43;1.65;;;1.33;;
69319;SDS011;56467;53.502;49.248;2022-10-20T03:27:09;1.98;;;1.60;;
69319;SDS011;56467;53.502;49.248;2022-10-20T03:29:34;1.90;;;1.73;;
69319;SDS011;56467;53.502;49.248;2022-10-20T03:32:00;1.50;;;1.40;;
69319;SDS011;56467;53.502;49.248;2022-10-20T03:34:26;2.63;;;1.70;;
69319;SDS011;56467;53.502;49.248;2022-10-20T03:36:52;1.85;;;1.52;;
69319;SDS011;56467;53.502;49.248;2022-10-20T03:39:17;1.88;;;1.60;;
69319;SDS011;56467;53.502;49.248;2022-10-20T03:41:43;2.40;;;1.50;;
69319;SDS011;56467;53.502;49.248;2022-10-20T03:44:09;1.77;;;1.40;;
69319;SDS011;56467;53.502;49.248;2022-10-20T03:46:35;1.90;;;1.50;;
69319;SDS011;56467;53.502;49.248;2022-10-20T03:49:01;2.05;;;1.65;;
69319;SDS011;56467;53.502;49.248;2022-10-20T03:51:27;1.83;;;1.50;;
69319;SDS011;56467;53.502;49.248;2022-10-20T03:53:52;2.00;;;1.40;;
69319;SDS011;56467;53.502;49.248;2022-10-20T03:56:18;1.95;;;1.50;;
69319;SDS011;56467;53.502;49.248;2022-10-20T03:58:45;2.45;;;1.70;;
69319;SDS011;56467;53.502;49.248;2022-10-20T04:01:15;2.85;;;1.50;;
69319;SDS011;56467;53.502;49.248;2022-10-20T04:03:42;1.85;;;1.40;;
69319;SDS011;56467;53.502;49.248;2022-10-20T04:06:09;1.60;;;1.30;;
69319;SDS011;56467;53.502;49.248;2022-10-20T04:08:37;2.15;;;1.40;;
69319;SDS011;56467;53.502;49.248;2022-10-20T04:11:02;1.58;;;1.40;;
69319;SDS011;56467;53.502;49.248;2022-10-20T04:13:28;2.13;;;1.55;;
69319;SDS011;56467;53.502;49.248;2022-10-20T04:15:54;1.73;;;1.40;;
69319;SDS011;56467;53.502;49.248;2022-10-20T04:18:20;1.60;;;1.30;;
69319;SDS011;56467;53.502;49.248;2022-10-20T04:20:48;2.10;;;1.33;;
69319;SDS011;56467;53.502;49.248;2022-10-20T04:23:14;2.10;;;1.33;;
69319;SDS011;56467;53.502;49.248;2022-10-20T04:25:40;1.75;;;1.40;;
69319;SDS011;56467;53.502;49.248;2022-10-20T04:28:10;1.52;;;1.35;;
69319;SDS011;56467;53.502;49.248;2022-10-20T04:30:37;1.80;;;1.40;;
69319;SDS011;56467;53.502;49.248;2022-10-20T04:33:03;1.52;;;1.35;;
69319;SDS011;56467;53.502;49.248;2022-10-20T04:35:29;1.38;;;1.13;;
69319;SDS011;56467;53.502;49.248;2022-10-20T04:37:55;1.48;;;1.20;;
69319;SDS011;56467;53.502;49.248;2022-10-20T04:40:20;2.00;;;1.50;;
69319;SDS011;56467;53.502;49.248;2022-10-20T04:42:46;1.42;;;1.33;;
69319;SDS011;56467;53.502;49.248;2022-10-20T04:45:12;1.42;;;1.30;;
69319;SDS011;56467;53.502;49.248;2022-10-20T04:47:38;1.35;;;1.20;;
69319;SDS011;56467;53.502;49.248;2022-10-20T04:50:03;1.75;;;1.20;;
69319;SDS011;56467;53.502;49.248;2022-10-20T04:52:30;1.58;;;1.25;;
69319;SDS011;56467;53.502;49.248;2022-10-20T04:54:55;1.98;;;1.40;;
69319;SDS011;56467;53.502;49.248;2022-10-20T04:57:21;1.40;;;1.30;;
69319;SDS011;56467;53.502;49.248;2022-10-20T04:59:47;1.75;;;1.27;;
69319;SDS011;56467;53.502;49.248;2022-10-20T05:02:13;1.38;;;1.20;;
69319;SDS011;56467;53.502;49.248;2022-10-20T05:04:39;1.40;;;1.30;;
69319;SDS011;56467;53.502;49.248;2022-10-20T05:07:05;2.00;;;1.30;;
69319;SDS011;56467;53.502;49.248;2022-10-20T05:09:30;1.88;;;1.20;;
69319;SDS011;56467;53.502;49.248;2022-10-20T05:11:57;1.48;;;1.20;;
69319;SDS011;56467;53.502;49.248;2022-10-20T05:14:23;1.63;;;1.30;;
69319;SDS011;56467;53.502;49.248;2022-10-20T05:16:49;1.25;;;1.10;;
69319;SDS011;56467;53.502;49.248;2022-10-20T05:19:16;1.48;;;1.20;;
69319;SDS011;56467;53.502;49.248;2022-10-20T05:24:27;1.48;;;1.20;;
69319;SDS011;56467;53.502;49.248;2022-10-20T05:26:53;1.23;;;1.13;;
69319;SDS011;56467;53.502;49.248;2022-10-20T05:29:18;1.90;;;1.33;;
69319;SDS011;56467;53.502;49.248;2022-10-20T05:31:44;1.77;;;1.40;;
69319;SDS011;56467;53.502;49.248;2022-10-20T05:34:10;2.15;;;1.30;;
69319;SDS011;56467;53.502;49.248;2022-10-20T05:36:36;1.25;;;1.15;;
69319;SDS011;56467;53.502;49.248;2022-10-20T05:39:03;1.58;;;1.35;;
69319;SDS011;56467;53.502;49.248;2022-10-20T05:41:30;1.20;;;1.10;;
69319;SDS011;56467;53.502;49.248;2022-10-20T05:43:58;1.20;;;1.10;;
69319;SDS011;56467;53.502;49.248;2022-10-20T05:46:26;1.40;;;1.10;;
69319;SDS011;56467;53.502;49.248;2022-10-20T05:48:55;1.60;;;1.20;;
69319;SDS011;56467;53.502;49.248;2022-10-20T05:51:23;1.33;;;1.00;;
69319;SDS011;56467;53.502;49.248;2022-10-20T05:53:51;1.67;;;1.23;;
69319;SDS011;56467;53.502;49.248;2022-10-20T05:56:19;1.65;;;1.27;;
69319;SDS011;56467;53.502;49.248;2022-10-20T05:58:46;1.63;;;1.30;;
69319;SDS011;56467;53.502;49.248;2022-10-20T06:01:14;1.60;;;1.30;;
69319;SDS011;56467;53.502;49.248;2022-10-20T06:03:54;1.67;;;1.17;;
69319;SDS011;56467;53.502;49.248;2022-10-20T06:06:23;1.35;;;1.10;;
69319;SDS011;56467;53.502;49.248;2022-10-20T06:08:51;1.52;;;1.33;;
69319;SDS011;56467;53.502;49.248;2022-10-20T06:11:18;1.63;;;1.15;;
69319;SDS011;56467;53.502;49.248;2022-10-20T06:13:45;1.10;;;1.00;;
69319;SDS011;56467;53.502;49.248;2022-10-20T06:16:13;1.60;;;1.20;;
69319;SDS011;56467;53.502;49.248;2022-10-20T06:18:43;1.20;;;1.10;;
69319;SDS011;56467;53.502;49.248;2022-10-20T06:21:11;1.13;;;1.02;;
69319;SDS011;56467;53.502;49.248;2022-10-20T06:23:39;1.35;;;1.20;;
69319;SDS011;56467;53.502;49.248;2022-10-20T06:26:06;1.23;;;1.13;;
69319;SDS011;56467;53.502;49.248;2022-10-20T06:28:35;1.45;;;1.20;;
69319;SDS011;56467;53.502;49.248;2022-10-20T06:31:09;2.45;;;1.42;;
69319;SDS011;56467;53.502;49.248;2022-10-20T06:33:39;2.05;;;1.20;;
69319;SDS011;56467;53.502;49.248;2022-10-20T06:36:06;1.30;;;1.10;;
69319;SDS011;56467;53.502;49.248;2022-10-20T06:38:32;1.55;;;1.20;;
69319;SDS011;56467;53.502;49.248;2022-10-20T06:41:01;2.40;;;1.20;;
69319;SDS011;56467;53.502;49.248;2022-10-20T06:43:28;1.85;;;1.20;;
69319;SDS011;56467;53.502;49.248;2022-10-20T06:45:58;1.30;;;1.08;;
69319;SDS011;56467;53.502;49.248;2022-10-20T06:48:28;1.88;;;1.40;;
69319;SDS011;56467;53.502;49.248;2022-10-20T06:50:58;1.83;;;1.10;;
69319;SDS011;56467;53.502;49.248;2022-10-20T06:53:26;1.25;;;1.08;;
69319;SDS011;56467;53.502;49.248;2022-10-20T06:55:59;2.25;;;1.20;;
69319;SDS011;56467;53.502;49.248;2022-10-20T06:58:36;1.20;;;1.10;;
69319;SDS011;56467;53.502;49.248;2022-10-20T07:03:30;1.45;;;1.20;;
69319;SDS011;56467;53.502;49.248;2022-10-20T07:05:57;1.55;;;1.10;;
69319;SDS011;56467;53.502;49.248;2022-10-20T07:08:25;2.03;;;1.20;;
69319;SDS011;56467;53.502;49.248;2022-10-20T07:11:02;1.20;;;1.10;;
69319;SDS011;56467;53.502;49.248;2022-10-20T07:13:33;1.30;;;1.05;;
69319;SDS011;56467;53.502;49.248;2022-10-20T07:16:01;1.52;;;1.20;;
69319;SDS011;56467;53.502;49.248;2022-10-20T07:18:28;1.55;;;1.30;;
69319;SDS011;56467;53.502;49.248;2022-10-20T07:20:57;1.83;;;1.20;;
69319;SDS011;56467;53.502;49.248;2022-10-20T07:23:25;1.20;;;1.02;;
69319;SDS011;56467;53.502;49.248;2022-10-20T07:25:55;1.70;;;1.10;;
69319;SDS011;56467;53.502;49.248;2022-10-20T07:28:25;2.83;;;1.20;;
69319;SDS011;56467;53.502;49.248;2022-10-20T07:30:51;1.33;;;1.13;;
69319;SDS011;56467;53.502;49.248;2022-10-20T07:33:16;1.80;;;1.20;;
69319;SDS011;56467;53.502;49.248;2022-10-20T07:35:42;1.15;;;1.05;;
69319;SDS011;56467;53.502;49.248;2022-10-20T07:38:08;1.33;;;1.05;;
69319;SDS011;56467;53.502;49.248;2022-10-20T07:40:34;1.38;;;1.27;;
69319;SDS011;56467;53.502;49.248;2022-10-20T07:42:59;1.10;;;1.00;;
69319;SDS011;56467;53.502;49.248;2022-10-20T07:45:25;2.10;;;1.20;;
69319;SDS011;56467;53.502;49.248;2022-10-20T07:47:51;1.10;;;1.00;;
69319;SDS011;56467;53.502;49.248;2022-10-20T07:50:16;1.60;;;1.02;;
69319;SDS011;56467;53.502;49.248;2022-10-20T07:52:42;1.08;;;0.98;;
69319;SDS011;56467;53.502;49.248;2022-10-20T07:55:08;1.65;;;1.10;;
69319;SDS011;56467;53.502;49.248;2022-10-20T07:57:34;1.13;;;0.95;;
69319;SDS011;56467;53.502;49.248;2022-10-20T07:59:59;2.10;;;1.10;;
69319;SDS011;56467;53.502;49.248;2022-10-20T08:02:25;1.27;;;1.10;;
69319;SDS011;56467;53.502;49.248;2022-10-20T08:04:51;1.50;;;1.20;;
69319;SDS011;56467;53.502;49.248;2022-10-20T08:07:17;1.30;;;1.20;;
69319;SDS011;56467;53.502;49.248;2022-10-20T08:09:42;1.15;;;1.00;;
69319;SDS011;56467;53.502;49.248;2022-10-20T08:12:08;2.05;;;1.02;;
69319;SDS011;56467;53.502;49.248;2022-10-20T08:14:34;1.17;;;1.08;;
69319;SDS011;56467;53.502;49.248;2022-10-20T08:17:02;1.60;;;1.13;;
69319;SDS011;56467;53.502;49.248;2022-10-20T08:19:28;1.17;;;1.08;;
69319;SDS011;56467;53.502;49.248;2022-10-20T08:21:53;1.02;;;0.95;;
69319;SDS011;56467;53.502;49.248;2022-10-20T08:24:19;0.98;;;0.98;;
69319;SDS011;56467;53.502;49.248;2022-10-20T08:26:45;1.10;;;1.00;;
69319;SDS011;56467;53.502;49.248;2022-10-20T08:29:11;0.93;;;0.85;;
69319;SDS011;56467;53.502;49.248;2022-10-20T08:31:37;2.05;;;0.95;;
69319;SDS011;56467;53.502;49.248;2022-10-20T08:34:03;1.27;;;1.17;;
69319;SDS011;56467;53.502;49.248;2022-10-20T08:36:29;0.93;;;0.88;;
69319;SDS011;56467;53.502;49.248;2022-10-20T08:38:57;1.23;;;1.13;;
69319;SDS011;56467;53.502;49.248;2022-10-20T08:41:25;1.00;;;0.90;;
69319;SDS011;56467;53.502;49.248;2022-10-20T08:43:54;1.35;;;1.00;;
69319;SDS011;56467;53.502;49.248;2022-10-20T08:46:35;1.20;;;1.10;;
69319;SDS011;56467;53.502;49.248;2022-10-20T08:49:03;1.60;;;1.30;;
69319;SDS011;56467;53.502;49.248;2022-10-20T08:51:35;2.83;;;1.70;;
69319;SDS011;56467;53.502;49.248;2022-10-20T08:54:02;3.30;;;1.70;;
69319;SDS011;56467;53.502;49.248;2022-10-20T08:56:32;3.25;;;1.83;;
69319;SDS011;56467;53.502;49.248;2022-10-20T08:58:59;3.40;;;1.88;;
69319;SDS011;56467;53.502;49.248;2022-10-20T09:01:33;2.85;;;1.70;;
69319;SDS011;56467;53.502;49.248;2022-10-20T09:04:08;2.92;;;1.80;;
69319;SDS011;56467;53.502;49.248;2022-10-20T09:06:58;2.85;;;1.90;;
69319;SDS011;56467;53.502;49.248;2022-10-20T09:09:28;4.18;;;1.75;;
69319;SDS011;56467;53.502;49.248;2022-10-20T09:12:00;3.30;;;1.65;;
69319;SDS011;56467;53.502;49.248;2022-10-20T09:14:31;2.38;;;1.80;;
69319;SDS011;56467;53.502;49.248;2022-10-20T09:16:58;2.80;;;1.80;;
69319;SDS011;56467;53.502;49.248;2022-10-20T09:19:24;3.33;;;1.80;;
69319;SDS011;56467;53.502;49.248;2022-10-20T09:21:52;3.38;;;1.70;;
69319;SDS011;56467;53.502;49.248;2022-10-20T09:24:22;2.28;;;1.60;;
69319;SDS011;56467;53.502;49.248;2022-10-20T09:26:51;2.97;;;1.73;;
69319;SDS011;56467;53.502;49.248;2022-10-20T09:29:18;4.50;;;1.80;;
69319;SDS011;56467;53.502;49.248;2022-10-20T09:31:46;3.78;;;1.67;;
69319;SDS011;56467;53.502;49.248;2022-10-20T09:42:36;3.30;;;1.80;;
69319;SDS011;56467;53.502;49.248;2022-10-20T09:45:17;3.65;;;1.75;;
69319;SDS011;56467;53.502;49.248;2022-10-20T09:47:47;3.42;;;1.80;;
69319;SDS011;56467;53.502;49.248;2022-10-20T09:50:18;3.05;;;1.60;;
69319;SDS011;56467;53.502;49.248;2022-10-20T09:52:50;3.45;;;1.63;;
69319;SDS011;56467;53.502;49.248;2022-10-20T09:55:23;2.35;;;1.50;;
69319;SDS011;56467;53.502;49.248;2022-10-20T09:57:49;2.80;;;1.48;;
69319;SDS011;56467;53.502;49.248;2022-10-20T10:00:22;2.60;;;1.58;;
69319;SDS011;56467;53.502;49.248;2022-10-20T10:05:51;2.67;;;1.52;;
69319;SDS011;56467;53.502;49.248;2022-10-20T10:08:18;2.75;;;1.40;;
69319;SDS011;56467;53.502;49.248;2022-10-20T10:10:45;2.70;;;1.42;;
69319;SDS011;56467;53.502;49.248;2022-10-20T10:13:24;3.30;;;1.42;;
69319;SDS011;56467;53.502;49.248;2022-10-20T10:16:02;3.35;;;1.42;;
69319;SDS011;56467;53.502;49.248;2022-10-20T10:18:30;2.20;;;1.33;;
69319;SDS011;56467;53.502;49.248;2022-10-20T10:21:03;2.30;;;1.30;;
69319;SDS011;56467;53.502;49.248;2022-10-20T10:23:34;1.90;;;1.20;;
69319;SDS011;56467;53.502;49.248;2022-10-20T10:26:31;4.85;;;1.50;;
69319;SDS011;56467;53.502;49.248;2022-10-20T10:32:30;2.33;;;1.40;;
69319;SDS011;56467;53.502;49.248;2022-10-20T10:37:50;2.35;;;1.35;;
69319;SDS011;56467;53.502;49.248;2022-10-20T10:40:21;1.65;;;1.10;;
69319;SDS011;56467;53.502;49.248;2022-10-20T10:43:12;1.92;;;1.17;;
69319;SDS011;56467;53.502;49.248;2022-10-20T10:46:05;1.90;;;1.30;;
69319;SDS011;56467;53.502;49.248;2022-10-20T10:56:50;1.38;;;1.20;;
69319;SDS011;56467;53.502;49.248;2022-10-20T10:59:21;1.75;;;1.10;;
69319;SDS011;56467;53.502;49.248;2022-10-20T11:10:35;1.27;;;1.10;;
69319;SDS011;56467;53.502;49.248;2022-10-20T11:15:56;2.88;;;1.20;;
69319;SDS011;56467;53.502;49.248;2022-10-20T11:29:07;1.38;;;0.70;;
69319;SDS011;56467;53.502;49.248;2022-10-20T11:31:52;1.17;;;0.95;;
69319;SDS011;56467;53.502;49.248;2022-10-20T11:34:59;2.40;;;1.10;;
69319;SDS011;56467;53.502;49.248;2022-10-20T11:37:44;1.50;;;1.00;;
69319;SDS011;56467;53.502;49.248;2022-10-20T11:40:40;1.50;;;1.20;;
69319;SDS011;56467;53.502;49.248;2022-10-20T11:43:19;2.65;;;1.20;;
69319;SDS011;56467;53.502;49.248;2022-10-20T11:46:00;1.80;;;0.95;;
69319;SDS011;56467;53.502;49.248;2022-10-20T12:04:49;1.50;;;1.00;;
69319;SDS011;56467;53.502;49.248;2022-10-20T12:22:05;2.85;;;0.90;;
69319;SDS011;56467;53.502;49.248;2022-10-20T12:27:29;1.20;;;0.95;;
69319;SDS011;56467;53.502;49.248;2022-10-20T12:37:52;14.05;;;7.60;;
69319;SDS011;56467;53.502;49.248;2022-10-20T12:40:42;12.13;;;7.30;;
69319;SDS011;56467;53.502;49.248;2022-10-20T12:43:26;11.98;;;6.82;;
69319;SDS011;56467;53.502;49.248;2022-10-20T12:45:56;11.80;;;6.22;;
69319;SDS011;56467;53.502;49.248;2022-10-20T12:48:27;12.73;;;6.55;;
69319;SDS011;56467;53.502;49.248;2022-10-20T12:50:54;10.90;;;6.03;;
69319;SDS011;56467;53.502;49.248;2022-10-20T12:53:28;12.43;;;6.25;;
69319;SDS011;56467;53.502;49.248;2022-10-20T12:59:06;9.90;;;4.80;;
69319;SDS011;56467;53.502;49.248;2022-10-20T13:15:28;7.00;;;3.80;;
69319;SDS011;56467;53.502;49.248;2022-10-20T13:23:32;6.68;;;3.53;;
69319;SDS011;56467;53.502;49.248;2022-10-20T13:26:25;5.75;;;3.42;;
69319;SDS011;56467;53.502;49.248;2022-10-20T13:28:55;5.18;;;3.20;;
69319;SDS011;56467;53.502;49.248;2022-10-20T13:31:34;5.78;;;3.40;;
69319;SDS011;56467;53.502;49.248;2022-10-20T13:36:42;6.05;;;2.92;;
69319;SDS011;56467;53.502;49.248;2022-10-20T13:50:15;4.55;;;2.50;;
69319;SDS011;56467;53.502;49.248;2022-10-20T13:52:48;4.80;;;2.58;;
69319;SDS011;56467;53.502;49.248;2022-10-20T13:55:18;4.10;;;2.50;;
69319;SDS011;56467;53.502;49.248;2022-10-20T13:57:51;4.38;;;2.35;;
69319;SDS011;56467;53.502;49.248;2022-10-20T14:00:22;4.40;;;2.42;;
69319;SDS011;56467;53.502;49.248;2022-10-20T14:03:03;4.63;;;2.00;;
69319;SDS011;56467;53.502;49.248;2022-10-20T14:05:39;5.20;;;2.40;;
69319;SDS011;56467;53.502;49.248;2022-10-20T14:08:08;4.82;;;2.40;;
69319;SDS011;56467;53.502;49.248;2022-10-20T14:13:01;3.25;;;2.10;;
69319;SDS011;56467;53.502;49.248;2022-10-20T14:15:32;2.83;;;2.00;;
69319;SDS011;56467;53.502;49.248;2022-10-20T14:18:00;3.25;;;2.20;;
69319;SDS011;56467;53.502;49.248;2022-10-20T14:20:29;4.28;;;2.03;;
69319;SDS011;56467;53.502;49.248;2022-10-20T14:22:56;3.45;;;2.00;;
69319;SDS011;56467;53.502;49.248;2022-10-20T14:25:24;4.50;;;2.17;;
69319;SDS011;56467;53.502;49.248;2022-10-20T14:27:51;3.17;;;2.10;;
69319;SDS011;56467;53.502;49.248;2022-10-20T14:30:18;3.22;;;1.98;;
69319;SDS011;56467;53.502;49.248;2022-10-20T14:32:45;3.30;;;2.13;;
69319;SDS011;56467;53.502;49.248;2022-10-20T14:35:15;2.85;;;1.85;;
69319;SDS011;56467;53.502;49.248;2022-10-20T14:37:53;3.35;;;2.08;;
69319;SDS011;56467;53.502;49.248;2022-10-20T14:40:24;2.95;;;1.90;;
69319;SDS011;56467;53.502;49.248;2022-10-20T14:45:54;4.47;;;1.90;;
69319;SDS011;56467;53.502;49.248;2022-10-20T14:48:23;3.63;;;1.92;;
69319;SDS011;56467;53.502;49.248;2022-10-20T14:50:57;2.88;;;1.80;;
69319;SDS011;56467;53.502;49.248;2022-10-20T14:53:28;3.40;;;1.70;;
69319;SDS011;56467;53.502;49.248;2022-10-20T14:55:56;3.60;;;1.90;;
69319;SDS011;56467;53.502;49.248;2022-10-20T15:03:39;3.70;;;1.90;;
69319;SDS011;56467;53.502;49.248;2022-10-20T15:06:07;3.53;;;1.77;;
69319;SDS011;56467;53.502;49.248;2022-10-20T15:08:36;1.88;;;1.50;;
69319;SDS011;56467;53.502;49.248;2022-10-20T15:11:02;2.88;;;1.70;;
69319;SDS011;56467;53.502;49.248;2022-10-20T15:13:42;3.88;;;1.73;;
69319;SDS011;56467;53.502;49.248;2022-10-20T15:16:30;4.05;;;1.80;;
69319;SDS011;56467;53.502;49.248;2022-10-20T15:21:48;2.47;;;1.50;;
69319;SDS011;56467;53.502;49.248;2022-10-20T15:24:21;3.08;;;1.70;;
69319;SDS011;56467;53.502;49.248;2022-10-20T15:26:47;3.65;;;1.70;;
69319;SDS011;56467;53.502;49.248;2022-10-20T15:29:13;4.53;;;1.75;;
69319;SDS011;56467;53.502;49.248;2022-10-20T15:31:39;4.57;;;1.60;;
69319;SDS011;56467;53.502;49.248;2022-10-20T15:34:07;4.68;;;1.67;;
69319;SDS011;56467;53.502;49.248;2022-10-20T15:36:34;4.43;;;1.55;;
69319;SDS011;56467;53.502;49.248;2022-10-20T15:39:01;3.05;;;1.55;;
69319;SDS011;56467;53.502;49.248;2022-10-20T15:41:29;3.55;;;1.60;;
69319;SDS011;56467;53.502;49.248;2022-10-20T15:44:10;3.40;;;1.80;;
69319;SDS011;56467;53.502;49.248;2022-10-20T15:46:39;2.35;;;1.40;;
69319;SDS011;56467;53.502;49.248;2022-10-20T15:49:06;3.55;;;1.60;;
69319;SDS011;56467;53.502;49.248;2022-10-20T15:51:33;3.63;;;1.70;;
69319;SDS011;56467;53.502;49.248;2022-10-20T15:54:00;4.38;;;1.70;;
69319;SDS011;56467;53.502;49.248;2022-10-20T15:56:26;3.63;;;1.60;;
69319;SDS011;56467;53.502;49.248;2022-10-20T15:58:52;2.78;;;1.60;;
69319;SDS011;56467;53.502;49.248;2022-10-20T16:01:19;4.43;;;1.70;;
69319;SDS011;56467;53.502;49.248;2022-10-20T16:03:46;3.25;;;1.70;;
69319;SDS011;56467;53.502;49.248;2022-10-20T16:06:13;3.35;;;1.52;;
69319;SDS011;56467;53.502;49.248;2022-10-20T16:08:43;3.13;;;1.52;;
69319;SDS011;56467;53.502;49.248;2022-10-20T16:11:11;3.60;;;1.50;;
69319;SDS011;56467;53.502;49.248;2022-10-20T16:13:38;4.13;;;1.67;;
69319;SDS011;56467;53.502;49.248;2022-10-20T16:16:05;3.15;;;1.42;;
69319;SDS011;56467;53.502;49.248;2022-10-20T16:18:32;3.55;;;1.38;;
69319;SDS011;56467;53.502;49.248;2022-10-20T16:20:58;2.40;;;1.30;;
69319;SDS011;56467;53.502;49.248;2022-10-20T16:23:25;4.97;;;1.80;;
69319;SDS011;56467;53.502;49.248;2022-10-20T16:25:51;2.78;;;1.40;;
69319;SDS011;56467;53.502;49.248;2022-10-20T16:28:17;2.05;;;1.30;;
69319;SDS011;56467;53.502;49.248;2022-10-20T16:30:42;2.72;;;1.40;;
69319;SDS011;56467;53.502;49.248;2022-10-20T16:33:08;2.60;;;1.50;;
69319;SDS011;56467;53.502;49.248;2022-10-20T16:35:39;2.47;;;1.50;;
69319;SDS011;56467;53.502;49.248;2022-10-20T16:38:06;1.83;;;1.33;;
69319;SDS011;56467;53.502;49.248;2022-10-20T16:40:32;2.05;;;1.48;;
69319;SDS011;56467;53.502;49.248;2022-10-20T16:42:58;2.13;;;1.40;;
69319;SDS011;56467;53.502;49.248;2022-10-20T16:45:24;2.22;;;1.52;;
69319;SDS011;56467;53.502;49.248;2022-10-20T16:47:50;12.43;;;6.50;;
69319;SDS011;56467;53.502;49.248;2022-10-20T16:50:16;27.65;;;14.85;;
69319;SDS011;56467;53.502;49.248;2022-10-20T16:52:42;32.78;;;17.48;;
69319;SDS011;56467;53.502;49.248;2022-10-20T16:55:08;31.35;;;17.05;;
69319;SDS011;56467;53.502;49.248;2022-10-20T16:57:34;24.83;;;13.73;;
69319;SDS011;56467;53.502;49.248;2022-10-20T17:00:03;20.48;;;11.63;;
69319;SDS011;56467;53.502;49.248;2022-10-20T17:02:30;20.75;;;10.85;;
69319;SDS011;56467;53.502;49.248;2022-10-20T17:05:01;19.73;;;9.40;;
69319;SDS011;56467;53.502;49.248;2022-10-20T17:07:28;16.90;;;9.02;;
69319;SDS011;56467;53.502;49.248;2022-10-20T17:09:54;15.93;;;7.57;;
69319;SDS011;56467;53.502;49.248;2022-10-20T17:12:20;14.68;;;7.30;;
69319;SDS011;56467;53.502;49.248;2022-10-20T17:14:45;11.57;;;6.65;;
69319;SDS011;56467;53.502;49.248;2022-10-20T17:17:11;12.70;;;6.10;;
69319;SDS011;56467;53.502;49.248;2022-10-20T17:19:37;11.20;;;5.57;;
69319;SDS011;56467;53.502;49.248;2022-10-20T17:22:05;26.58;;;12.48;;
69319;SDS011;56467;53.502;49.248;2022-10-20T17:24:30;63.67;;;31.02;;
69319;SDS011;56467;53.502;49.248;2022-10-20T17:26:56;54.38;;;26.98;;
69319;SDS011;56467;53.502;49.248;2022-10-20T17:29:22;45.65;;;23.48;;
69319;SDS011;56467;53.502;49.248;2022-10-20T17:31:48;38.67;;;19.92;;
69319;SDS011;56467;53.502;49.248;2022-10-20T17:34:14;32.75;;;16.08;;
69319;SDS011;56467;53.502;49.248;2022-10-20T17:36:41;28.50;;;13.57;;